Valle Di Andalusia — IBTJ — position and weather

sailwx.info

Track history (hours):
 
Tides and Currents Weather Stations Pressure Air Temp Water Temp Dewpoint Dewpoint Depression Visibility Wind Speed Wind Dir Waves Ship Positions

Valle Di Andalusia

Last reported at 2016-Aug-31 22:33 UTC. Time now 2016-Aug-31 23:29 UTC.
Position N 36°14' E 014°59'.

Length 176 m; draft 6.5 m.

Type: Ship. MMSI: 247046200.

Date/timePositionNaut miles runAvg speedWind from/ knotsBaromVisibWave heightAir tempDewpointWater temp
2016-Aug-31 22:33N 36°14' E 014°59'0 0.0
2016-Aug-31 21:33N 36°14' E 014°59'0 0.0
2016-Aug-31 20:33N 36°14' E 014°59'0 0.0
2016-Aug-31 19:31N 36°14' E 014°59'0 0.0
2016-Aug-31 18:26N 36°14' E 014°59'0 0.0
2016-Aug-31 17:33N 36°14' E 014°59'0 0.0
2016-Aug-31 10:27N 36°14' E 014°59'0 0.0
2016-Aug-31 09:12N 36°14' E 014°59'0 0.0
2016-Aug-31 08:06N 36°14' E 014°59'0 0.0
2016-Aug-31 02:12N 36°14' E 014°59'0 0.0
2016-Aug-31 01:33N 36°14' E 014°59'0 0.1
2016-Aug-31 00:33N 36°14' E 014°59'0 0.0
2016-Aug-30 23:15N 36°14' E 014°59'0 0.0
2016-Aug-30 22:33N 36°14' E 014°59'0 0.0
2016-Aug-30 21:33N 36°14' E 014°59'0 0.0
2016-Aug-30 20:18N 36°14' E 014°59'0 0.0
2016-Aug-30 19:08N 36°14' E 014°59'0 0.0
2016-Aug-30 18:29N 36°14' E 014°59'0 0.0
2016-Aug-30 17:33N 36°14' E 014°59'0 0.0
2016-Aug-30 10:24N 36°14' E 014°59'0 0.0
2016-Aug-30 09:33N 36°14' E 014°59'0 0.0
2016-Aug-30 08:31N 36°14' E 014°59'0 0.0
2016-Aug-30 06:27N 36°14' E 014°59'12 1.3
2016-Aug-29 21:31N 36°25' E 015°05'1212.1
2016-Aug-29 20:33N 36°34' E 015°14'1212.2
2016-Aug-29 19:33N 36°44' E 015°22'1212.0
2016-Aug-29 18:33N 36°54' E 015°30'1211.7
2016-Aug-29 17:33N 37°04' E 015°38'1311.5
2016-Aug-29 16:24N 37°14' E 015°49'1411.5
2016-Aug-29 15:09N 37°27' E 015°55'711.5
2016-Aug-29 14:32N 37°34' E 015°59'1211.4
2016-Aug-29 13:30N 37°44' E 016°06'1111.5
2016-Aug-29 12:33N 37°54' E 016°13'224 9.3
2016-Aug-28 12:33N 41°34' E 017°01'1212.3
2016-Aug-28 11:33N 41°43' E 016°49'1212.4
2016-Aug-28 10:33N 41°51' E 016°37'6112.2
2016-Aug-28 05:33N 42°35' E 015°39'1212.0
2016-Aug-28 04:31N 42°43' E 015°27'3712.3
2016-Aug-28 01:32N 43°09' E 014°51'3511.7
2016-Aug-27 22:33N 43°33' E 014°17'1712.0
2016-Aug-27 21:10N 43°45' E 014°01'1912.1
2016-Aug-27 19:33N 43°58' E 013°40'2511.9
2016-Aug-27 17:29N 44°11' E 013°12'1111.6
2016-Aug-27 16:33N 44°22' E 013°08'1111.5
2016-Aug-27 15:33N 44°33' E 013°03'1511.7
2016-Aug-27 14:17N 44°47' E 012°57'911.7
2016-Aug-27 13:33N 44°55' E 012°51'1212.0
2016-Aug-27 12:33N 45°05' E 012°43'1211.6
2016-Aug-27 11:33N 45°13' E 012°31'1111.2
2016-Aug-27 10:33N 45°20' E 012°19'6 6.5
2016-Aug-27 09:33N 45°26' E 012°15'1 0.9
2016-Aug-27 08:24N 45°26' E 012°13'0 0.0
2016-Aug-27 07:33N 45°26' E 012°13'0 0.0
2016-Aug-27 06:32N 45°26' E 012°13'0 0.0
2016-Aug-27 04:32N 45°26' E 012°13'0 0.0
2016-Aug-27 03:31N 45°26' E 012°13'0 0.0
2016-Aug-27 02:31N 45°26' E 012°13'0 0.0
2016-Aug-27 01:33N 45°26' E 012°13'0 0.0
2016-Aug-27 00:30N 45°26' E 012°13'0 0.0
2016-Aug-26 23:32N 45°26' E 012°13'0 0.0
2016-Aug-26 22:32N 45°26' E 012°13'0 0.0
2016-Aug-26 21:28N 45°26' E 012°13'0 0.0
2016-Aug-26 20:31N 45°26' E 012°13'0 0.0
2016-Aug-26 19:31N 45°26' E 012°13'0 0.0
2016-Aug-26 18:33N 45°26' E 012°13'0 0.0
2016-Aug-26 17:33N 45°26' E 012°13'0 0.0
2016-Aug-26 16:32N 45°26' E 012°13'0 0.0
2016-Aug-26 15:32N 45°26' E 012°13'0 0.0
2016-Aug-26 14:32N 45°26' E 012°13'0 0.0
2016-Aug-26 13:31N 45°26' E 012°13'0 0.0
2016-Aug-26 12:31N 45°26' E 012°13'0 0.0
2016-Aug-26 11:27N 45°26' E 012°13'0 0.0
2016-Aug-26 10:30N 45°26' E 012°13'0 0.0
2016-Aug-26 09:26N 45°26' E 012°13'0 0.0
2016-Aug-26 08:32N 45°26' E 012°13'0 0.0
2016-Aug-26 07:28N 45°26' E 012°13'0 0.0
2016-Aug-26 06:28N 45°26' E 012°13'0 0.0
2016-Aug-26 04:33N 45°26' E 012°13'0 0.0
2016-Aug-26 03:33N 45°26' E 012°13'0 0.0
2016-Aug-26 02:32N 45°26' E 012°13'0 0.0
2016-Aug-26 01:32N 45°26' E 012°13'0 0.0
2016-Aug-26 00:31N 45°26' E 012°13'0 0.0
2016-Aug-25 23:31N 45°26' E 012°13'0 0.0
2016-Aug-25 22:31N 45°26' E 012°13'0 0.0
2016-Aug-25 21:27N 45°26' E 012°13'0 0.0
2016-Aug-25 20:33N 45°26' E 012°13'0 0.0
2016-Aug-25 19:29N 45°26' E 012°13'0 0.0
2016-Aug-25 18:32N 45°26' E 012°13'0 0.0
2016-Aug-25 17:31N 45°26' E 012°13'0 0.0
2016-Aug-25 16:31N 45°26' E 012°13'0 0.0
2016-Aug-25 15:31N 45°26' E 012°13'0 0.0
2016-Aug-25 14:33N 45°26' E 012°13'0 0.0
2016-Aug-25 13:33N 45°26' E 012°13'0 0.0
2016-Aug-25 12:32N 45°26' E 012°13'2 1.6
2016-Aug-25 11:32N 45°26' E 012°16'6 6.0
2016-Aug-25 10:32N 45°20' E 012°19'5 5.4
2016-Aug-25 09:31N 45°19' E 012°27'0 0.0
2016-Aug-25 08:33N 45°19' E 012°27'0 0.0
2016-Aug-25 07:33N 45°19' E 012°27'0 0.0
2016-Aug-25 06:33N 45°19' E 012°27'0 0.0
2016-Aug-25 04:32N 45°19' E 012°27'0 0.0
2016-Aug-25 03:31N 45°19' E 012°27'0 0.0
2016-Aug-25 02:31N 45°19' E 012°27'0 0.0
2016-Aug-25 01:33N 45°19' E 012°27'0 0.0
2016-Aug-25 00:33N 45°19' E 012°27'0 0.0
2016-Aug-24 23:33N 45°19' E 012°27'0 0.0
2016-Aug-24 22:32N 45°19' E 012°27'0 0.0
2016-Aug-24 21:32N 45°19' E 012°27'0 0.0
2016-Aug-24 20:31N 45°19' E 012°27'0 0.0
2016-Aug-24 19:31N 45°19' E 012°27'0 0.0
2016-Aug-24 18:33N 45°19' E 012°27'0 0.0
2016-Aug-24 17:33N 45°19' E 012°27'0 0.0
2016-Aug-24 16:32N 45°19' E 012°27'0 0.1
2016-Aug-24 15:32N 45°19' E 012°27'0 0.0
2016-Aug-24 14:32N 45°19' E 012°27'0 0.0
2016-Aug-24 13:28N 45°19' E 012°27'0 0.0
2016-Aug-24 12:31N 45°19' E 012°27'0 0.0
2016-Aug-24 11:33N 45°19' E 012°27'0 0.0
2016-Aug-24 10:33N 45°19' E 012°27'0 0.0
2016-Aug-24 09:32N 45°19' E 012°27'0 0.0
2016-Aug-24 08:32N 45°19' E 012°27'0 0.0
2016-Aug-24 07:32N 45°19' E 012°27'0 0.0
2016-Aug-24 06:31N 45°19' E 012°27'0 0.0
2016-Aug-24 04:33N 45°19' E 012°27'0 0.0
2016-Aug-24 03:33N 45°19' E 012°27'0 0.0
2016-Aug-24 02:32N 45°19' E 012°27'0 0.0
2016-Aug-24 01:32N 45°19' E 012°27'0 0.0
2016-Aug-24 00:32N 45°19' E 012°27'0 0.0
2016-Aug-23 23:31N 45°19' E 012°27'0 0.0
2016-Aug-23 22:31N 45°19' E 012°27'0 0.1
2016-Aug-23 21:33N 45°19' E 012°27'0 0.1
2016-Aug-23 20:33N 45°19' E 012°27'0 0.1
2016-Aug-23 19:29N 45°19' E 012°27'0 0.0
2016-Aug-23 18:32N 45°19' E 012°27'0 0.0
2016-Aug-23 17:31N 45°19' E 012°27'0 0.0
2016-Aug-23 16:31N 45°19' E 012°27'0 0.0
2016-Aug-23 15:31N 45°19' E 012°27'0 0.0
2016-Aug-23 14:30N 45°19' E 012°27'0 0.1
2016-Aug-23 13:33N 45°19' E 012°27'0 0.0
2016-Aug-23 12:32N 45°19' E 012°27'0 0.0
2016-Aug-23 11:32N 45°19' E 012°27'0 0.0
2016-Aug-23 10:31N 45°19' E 012°27'0 0.0
2016-Aug-23 09:31N 45°19' E 012°27'0 0.0
2016-Aug-23 08:31N 45°19' E 012°27'0 0.0
2016-Aug-23 07:33N 45°19' E 012°27'0 0.0
2016-Aug-23 06:33N 45°19' E 012°27'0 0.0
2016-Aug-23 05:32N 45°19' E 012°27'0 0.0
2016-Aug-23 04:32N 45°19' E 012°27'0 0.0
2016-Aug-23 03:31N 45°19' E 012°27'0 0.0
2016-Aug-23 02:31N 45°19' E 012°27'0 0.1
2016-Aug-23 01:31N 45°19' E 012°27'0 0.1
2016-Aug-23 00:33N 45°19' E 012°27'0 0.0
2016-Aug-22 23:33N 45°19' E 012°27'0 0.0
2016-Aug-22 22:32N 45°19' E 012°27'0 0.0
2016-Aug-22 21:32N 45°19' E 012°27'0 0.0
2016-Aug-22 20:31N 45°19' E 012°27'0 0.0
2016-Aug-22 19:31N 45°19' E 012°27'0 0.0
2016-Aug-22 18:31N 45°19' E 012°27'0 0.0
2016-Aug-22 17:33N 45°19' E 012°27'0 0.0
2016-Aug-22 16:33N 45°19' E 012°27'0 0.0
2016-Aug-22 15:32N 45°19' E 012°27'0 0.0
2016-Aug-22 14:32N 45°19' E 012°27'0 0.0
2016-Aug-22 13:31N 45°19' E 012°27'0 0.0
2016-Aug-22 12:31N 45°19' E 012°27'0 0.0
2016-Aug-22 11:28N 45°19' E 012°27'0 0.0
2016-Aug-22 10:33N 45°19' E 012°27'0 0.0
2016-Aug-22 09:33N 45°19' E 012°27'0 0.1
2016-Aug-22 08:32N 45°19' E 012°27'0 0.0
2016-Aug-22 07:32N 45°19' E 012°27'0 0.0
2016-Aug-22 06:31N 45°19' E 012°27'0 0.0
2016-Aug-22 05:31N 45°19' E 012°27'0 0.0
2016-Aug-22 04:33N 45°19' E 012°27'1 0.6
2016-Aug-22 03:33N 45°19' E 012°28'1110.6
2016-Aug-22 02:33N 45°13' E 012°40'1212.4
2016-Aug-22 01:33N 45°03' E 012°51'1212.0
2016-Aug-22 00:33N 44°52' E 012°58'  
Track history (hours):
 
Tides and Currents Weather Stations Pressure Air Temp Water Temp Dewpoint Dewpoint Depression Visibility Wind Speed Wind Dir Waves Ship Positions

Valle Di Andalusia

Last reported at 2016-Aug-31 22:33 UTC. Time now 2016-Aug-31 23:29 UTC.
Position N 36°14' E 014°59'.

Length 176 m; draft 6.5 m.

Type: Ship. MMSI: 247046200.

Date/timePositionNaut miles runAvg speedWind from/ knotsBaromVisibWave heightAir tempDewpointWater temp
2016-Aug-31 22:33N 36°14' E 014°59'0 0.0
2016-Aug-31 21:33N 36°14' E 014°59'0 0.0
2016-Aug-31 20:33N 36°14' E 014°59'0 0.0
2016-Aug-31 19:31N 36°14' E 014°59'0 0.0
2016-Aug-31 18:26N 36°14' E 014°59'0 0.0
2016-Aug-31 17:33N 36°14' E 014°59'0 0.0
2016-Aug-31 10:27N 36°14' E 014°59'0 0.0
2016-Aug-31 09:12N 36°14' E 014°59'0 0.0
2016-Aug-31 08:06N 36°14' E 014°59'0 0.0
2016-Aug-31 02:12N 36°14' E 014°59'0 0.0
2016-Aug-31 01:33N 36°14' E 014°59'0 0.1
2016-Aug-31 00:33N 36°14' E 014°59'0 0.0
2016-Aug-30 23:15N 36°14' E 014°59'0 0.0
2016-Aug-30 22:33N 36°14' E 014°59'0 0.0
2016-Aug-30 21:33N 36°14' E 014°59'0 0.0
2016-Aug-30 20:18N 36°14' E 014°59'0 0.0
2016-Aug-30 19:08N 36°14' E 014°59'0 0.0
2016-Aug-30 18:29N 36°14' E 014°59'0 0.0
2016-Aug-30 17:33N 36°14' E 014°59'0 0.0
2016-Aug-30 10:24N 36°14' E 014°59'0 0.0
2016-Aug-30 09:33N 36°14' E 014°59'0 0.0
2016-Aug-30 08:31N 36°14' E 014°59'0 0.0
2016-Aug-30 06:27N 36°14' E 014°59'12 1.3
2016-Aug-29 21:31N 36°25' E 015°05'1212.1
2016-Aug-29 20:33N 36°34' E 015°14'1212.2
2016-Aug-29 19:33N 36°44' E 015°22'1212.0
2016-Aug-29 18:33N 36°54' E 015°30'1211.7
2016-Aug-29 17:33N 37°04' E 015°38'1311.5
2016-Aug-29 16:24N 37°14' E 015°49'1411.5
2016-Aug-29 15:09N 37°27' E 015°55'711.5
2016-Aug-29 14:32N 37°34' E 015°59'1211.4
2016-Aug-29 13:30N 37°44' E 016°06'1111.5
2016-Aug-29 12:33N 37°54' E 016°13'224 9.3
2016-Aug-28 12:33N 41°34' E 017°01'1212.3
2016-Aug-28 11:33N 41°43' E 016°49'1212.4
2016-Aug-28 10:33N 41°51' E 016°37'6112.2
2016-Aug-28 05:33N 42°35' E 015°39'1212.0
2016-Aug-28 04:31N 42°43' E 015°27'3712.3
2016-Aug-28 01:32N 43°09' E 014°51'3511.7
2016-Aug-27 22:33N 43°33' E 014°17'1712.0
2016-Aug-27 21:10N 43°45' E 014°01'1912.1
2016-Aug-27 19:33N 43°58' E 013°40'2511.9
2016-Aug-27 17:29N 44°11' E 013°12'1111.6
2016-Aug-27 16:33N 44°22' E 013°08'1111.5
2016-Aug-27 15:33N 44°33' E 013°03'1511.7
2016-Aug-27 14:17N 44°47' E 012°57'911.7
2016-Aug-27 13:33N 44°55' E 012°51'1212.0
2016-Aug-27 12:33N 45°05' E 012°43'1211.6
2016-Aug-27 11:33N 45°13' E 012°31'1111.2
2016-Aug-27 10:33N 45°20' E 012°19'6 6.5
2016-Aug-27 09:33N 45°26' E 012°15'1 0.9
2016-Aug-27 08:24N 45°26' E 012°13'0 0.0
2016-Aug-27 07:33N 45°26' E 012°13'0 0.0
2016-Aug-27 06:32N 45°26' E 012°13'0 0.0
2016-Aug-27 04:32N 45°26' E 012°13'0 0.0
2016-Aug-27 03:31N 45°26' E 012°13'0 0.0
2016-Aug-27 02:31N 45°26' E 012°13'0 0.0
2016-Aug-27 01:33N 45°26' E 012°13'0 0.0
2016-Aug-27 00:30N 45°26' E 012°13'0 0.0
2016-Aug-26 23:32N 45°26' E 012°13'0 0.0
2016-Aug-26 22:32N 45°26' E 012°13'0 0.0
2016-Aug-26 21:28N 45°26' E 012°13'0 0.0
2016-Aug-26 20:31N 45°26' E 012°13'0 0.0
2016-Aug-26 19:31N 45°26' E 012°13'0 0.0
2016-Aug-26 18:33N 45°26' E 012°13'0 0.0
2016-Aug-26 17:33N 45°26' E 012°13'0 0.0
2016-Aug-26 16:32N 45°26' E 012°13'0 0.0
2016-Aug-26 15:32N 45°26' E 012°13'0 0.0
2016-Aug-26 14:32N 45°26' E 012°13'0 0.0
2016-Aug-26 13:31N 45°26' E 012°13'0 0.0
2016-Aug-26 12:31N 45°26' E 012°13'0 0.0
2016-Aug-26 11:27N 45°26' E 012°13'0 0.0
2016-Aug-26 10:30N 45°26' E 012°13'0 0.0
2016-Aug-26 09:26N 45°26' E 012°13'0 0.0
2016-Aug-26 08:32N 45°26' E 012°13'0 0.0
2016-Aug-26 07:28N 45°26' E 012°13'0 0.0
2016-Aug-26 06:28N 45°26' E 012°13'0 0.0
2016-Aug-26 04:33N 45°26' E 012°13'0 0.0
2016-Aug-26 03:33N 45°26' E 012°13'0 0.0
2016-Aug-26 02:32N 45°26' E 012°13'0 0.0
2016-Aug-26 01:32N 45°26' E 012°13'0 0.0
2016-Aug-26 00:31N 45°26' E 012°13'0 0.0
2016-Aug-25 23:31N 45°26' E 012°13'0 0.0
2016-Aug-25 22:31N 45°26' E 012°13'0 0.0
2016-Aug-25 21:27N 45°26' E 012°13'0 0.0
2016-Aug-25 20:33N 45°26' E 012°13'0 0.0
2016-Aug-25 19:29N 45°26' E 012°13'0 0.0
2016-Aug-25 18:32N 45°26' E 012°13'0 0.0
2016-Aug-25 17:31N 45°26' E 012°13'0 0.0
2016-Aug-25 16:31N 45°26' E 012°13'0 0.0
2016-Aug-25 15:31N 45°26' E 012°13'0 0.0
2016-Aug-25 14:33N 45°26' E 012°13'0 0.0
2016-Aug-25 13:33N 45°26' E 012°13'0 0.0
2016-Aug-25 12:32N 45°26' E 012°13'2 1.6
2016-Aug-25 11:32N 45°26' E 012°16'6 6.0
2016-Aug-25 10:32N 45°20' E 012°19'5 5.4
2016-Aug-25 09:31N 45°19' E 012°27'0 0.0
2016-Aug-25 08:33N 45°19' E 012°27'0 0.0
2016-Aug-25 07:33N 45°19' E 012°27'0 0.0
2016-Aug-25 06:33N 45°19' E 012°27'0 0.0
2016-Aug-25 04:32N 45°19' E 012°27'0 0.0
2016-Aug-25 03:31N 45°19' E 012°27'0 0.0
2016-Aug-25 02:31N 45°19' E 012°27'0 0.0
2016-Aug-25 01:33N 45°19' E 012°27'0 0.0
2016-Aug-25 00:33N 45°19' E 012°27'0 0.0
2016-Aug-24 23:33N 45°19' E 012°27'0 0.0
2016-Aug-24 22:32N 45°19' E 012°27'0 0.0
2016-Aug-24 21:32N 45°19' E 012°27'0 0.0
2016-Aug-24 20:31N 45°19' E 012°27'0 0.0
2016-Aug-24 19:31N 45°19' E 012°27'0 0.0
2016-Aug-24 18:33N 45°19' E 012°27'0 0.0
2016-Aug-24 17:33N 45°19' E 012°27'0 0.0
2016-Aug-24 16:32N 45°19' E 012°27'0 0.1
2016-Aug-24 15:32N 45°19' E 012°27'0 0.0
2016-Aug-24 14:32N 45°19' E 012°27'0 0.0
2016-Aug-24 13:28N 45°19' E 012°27'0 0.0
2016-Aug-24 12:31N 45°19' E 012°27'0 0.0
2016-Aug-24 11:33N 45°19' E 012°27'0 0.0
2016-Aug-24 10:33N 45°19' E 012°27'0 0.0
2016-Aug-24 09:32N 45°19' E 012°27'0 0.0
2016-Aug-24 08:32N 45°19' E 012°27'0 0.0
2016-Aug-24 07:32N 45°19' E 012°27'0 0.0
2016-Aug-24 06:31N 45°19' E 012°27'0 0.0
2016-Aug-24 04:33N 45°19' E 012°27'0 0.0
2016-Aug-24 03:33N 45°19' E 012°27'0 0.0
2016-Aug-24 02:32N 45°19' E 012°27'0 0.0
2016-Aug-24 01:32N 45°19' E 012°27'0 0.0
2016-Aug-24 00:32N 45°19' E 012°27'0 0.0
2016-Aug-23 23:31N 45°19' E 012°27'0 0.0
2016-Aug-23 22:31N 45°19' E 012°27'0 0.1
2016-Aug-23 21:33N 45°19' E 012°27'0 0.1
2016-Aug-23 20:33N 45°19' E 012°27'0 0.1
2016-Aug-23 19:29N 45°19' E 012°27'0 0.0
2016-Aug-23 18:32N 45°19' E 012°27'0 0.0
2016-Aug-23 17:31N 45°19' E 012°27'0 0.0
2016-Aug-23 16:31N 45°19' E 012°27'0 0.0
2016-Aug-23 15:31N 45°19' E 012°27'0 0.0
2016-Aug-23 14:30N 45°19' E 012°27'0 0.1
2016-Aug-23 13:33N 45°19' E 012°27'0 0.0
2016-Aug-23 12:32N 45°19' E 012°27'0 0.0
2016-Aug-23 11:32N 45°19' E 012°27'0 0.0
2016-Aug-23 10:31N 45°19' E 012°27'0 0.0
2016-Aug-23 09:31N 45°19' E 012°27'0 0.0
2016-Aug-23 08:31N 45°19' E 012°27'0 0.0
2016-Aug-23 07:33N 45°19' E 012°27'0 0.0
2016-Aug-23 06:33N 45°19' E 012°27'0 0.0
2016-Aug-23 05:32N 45°19' E 012°27'0 0.0
2016-Aug-23 04:32N 45°19' E 012°27'0 0.0
2016-Aug-23 03:31N 45°19' E 012°27'0 0.0
2016-Aug-23 02:31N 45°19' E 012°27'0 0.1
2016-Aug-23 01:31N 45°19' E 012°27'0 0.1
2016-Aug-23 00:33N 45°19' E 012°27'0 0.0
2016-Aug-22 23:33N 45°19' E 012°27'0 0.0
2016-Aug-22 22:32N 45°19' E 012°27'0 0.0
2016-Aug-22 21:32N 45°19' E 012°27'0 0.0
2016-Aug-22 20:31N 45°19' E 012°27'0 0.0
2016-Aug-22 19:31N 45°19' E 012°27'0 0.0
2016-Aug-22 18:31N 45°19' E 012°27'0 0.0
2016-Aug-22 17:33N 45°19' E 012°27'0 0.0
2016-Aug-22 16:33N 45°19' E 012°27'0 0.0
2016-Aug-22 15:32N 45°19' E 012°27'0 0.0
2016-Aug-22 14:32N 45°19' E 012°27'0 0.0
2016-Aug-22 13:31N 45°19' E 012°27'0 0.0
2016-Aug-22 12:31N 45°19' E 012°27'0 0.0
2016-Aug-22 11:28N 45°19' E 012°27'0 0.0
2016-Aug-22 10:33N 45°19' E 012°27'0 0.0
2016-Aug-22 09:33N 45°19' E 012°27'0 0.1
2016-Aug-22 08:32N 45°19' E 012°27'0 0.0
2016-Aug-22 07:32N 45°19' E 012°27'0 0.0
2016-Aug-22 06:31N 45°19' E 012°27'0 0.0
2016-Aug-22 05:31N 45°19' E 012°27'0 0.0
2016-Aug-22 04:33N 45°19' E 012°27'1 0.6
2016-Aug-22 03:33N 45°19' E 012°28'1110.6
2016-Aug-22 02:33N 45°13' E 012°40'1212.4
2016-Aug-22 01:33N 45°03' E 012°51'1212.0
2016-Aug-22 00:33N 44°52' E 012°58'  

Dump ship's entire track history